createdAt,value
2022-12-04T00:01:28.092Z,13.20
2022-12-04T00:03:57.260Z,14.10
2022-12-04T00:06:25.891Z,13.98
2022-12-04T00:08:54.623Z,14.30
2022-12-04T00:11:25.007Z,14.25
2022-12-04T00:13:54.606Z,12.68
2022-12-04T00:16:24.896Z,13.95
2022-12-04T00:18:53.518Z,13.75
2022-12-04T00:21:22.080Z,15.02
2022-12-04T00:23:50.821Z,14.27
2022-12-04T00:26:23.166Z,13.65
2022-12-04T00:28:52.668Z,13.32
2022-12-04T00:31:23.966Z,13.95
2022-12-04T00:33:52.957Z,14.50
2022-12-04T00:36:23.021Z,12.10
2022-12-04T00:38:51.364Z,14.90
2022-12-04T00:41:22.647Z,13.23
2022-12-04T00:43:50.819Z,11.95
2022-12-04T00:46:23.289Z,13.02
2022-12-04T00:48:52.021Z,13.05
2022-12-04T00:51:22.916Z,13.00
2022-12-04T00:53:51.821Z,12.05
2022-12-04T00:56:24.635Z,13.85
2022-12-04T00:58:54.118Z,11.10
2022-12-04T01:01:24.490Z,13.23
2022-12-04T01:03:53.497Z,11.90
2022-12-04T01:06:23.130Z,14.90
2022-12-04T01:08:52.289Z,13.95
2022-12-04T01:11:21.782Z,12.98
2022-12-04T01:13:52.364Z,12.02
2022-12-04T01:16:24.133Z,13.20
2022-12-04T01:18:52.945Z,13.07
2022-12-04T01:21:21.392Z,11.90
2022-12-04T01:23:49.702Z,14.13
2022-12-04T01:26:20.164Z,14.20
2022-12-04T01:28:48.254Z,11.68
2022-12-04T01:31:19.410Z,10.73
2022-12-04T01:33:50.249Z,12.02
2022-12-04T01:36:21.712Z,13.27
2022-12-04T01:38:50.278Z,12.32
2022-12-04T01:41:21.118Z,11.98
2022-12-04T01:44:11.202Z,11.43
2022-12-04T01:46:39.440Z,13.70
2022-12-04T01:49:12.096Z,12.05
2022-12-04T01:51:43.219Z,12.38
2022-12-04T01:54:16.223Z,13.80
2022-12-04T01:56:47.149Z,12.75
2022-12-04T01:59:18.506Z,11.88
2022-12-04T02:01:58.271Z,12.02
2022-12-04T02:04:28.030Z,11.77
2022-12-04T02:06:56.161Z,11.88
2022-12-04T02:09:26.904Z,13.43
2022-12-04T02:12:03.185Z,11.10
2022-12-04T02:14:38.845Z,13.98
2022-12-04T02:17:16.241Z,13.30
2022-12-04T02:20:13.122Z,12.32
2022-12-04T02:23:00.970Z,13.23
2022-12-04T02:25:37.174Z,12.02
2022-12-04T02:28:12.797Z,12.52
2022-12-04T02:30:43.807Z,12.27
2022-12-04T02:33:20.119Z,11.00
2022-12-04T02:35:53.070Z,12.35
2022-12-04T02:38:28.013Z,11.10
2022-12-04T02:41:00.110Z,10.65
2022-12-04T02:43:33.862Z,11.10
2022-12-04T02:46:06.917Z,12.23
2022-12-04T02:48:41.500Z,12.55
2022-12-04T02:51:15.476Z,11.55
2022-12-04T02:53:49.601Z,10.05
2022-12-04T02:56:23.886Z,11.95
2022-12-04T02:58:57.057Z,10.30
2022-12-04T03:01:29.337Z,10.98
2022-12-04T03:04:03.158Z,13.00
2022-12-04T03:06:34.999Z,9.65
2022-12-04T03:09:09.419Z,11.40
2022-12-04T03:11:39.759Z,12.45
2022-12-04T03:14:14.130Z,10.93
2022-12-04T03:16:43.924Z,11.45
2022-12-04T03:19:16.323Z,11.13
2022-12-04T03:21:50.645Z,10.95
2022-12-04T03:24:23.656Z,11.40
2022-12-04T03:26:57.927Z,9.98
2022-12-04T03:29:34.318Z,10.25
2022-12-04T03:32:12.070Z,9.05
2022-12-04T03:34:46.936Z,10.40
2022-12-04T03:37:19.197Z,12.10
2022-12-04T03:39:56.738Z,9.75
2022-12-04T03:42:28.030Z,8.63
2022-12-04T03:45:04.306Z,9.73
2022-12-04T03:47:37.812Z,9.93
2022-12-04T03:50:11.585Z,9.48
2022-12-04T03:52:47.539Z,9.20
2022-12-04T03:55:21.436Z,10.20
2022-12-04T03:57:54.848Z,8.82
2022-12-04T04:00:24.800Z,9.77
2022-12-04T04:03:00.906Z,10.45
2022-12-04T04:05:31.399Z,11.05
2022-12-04T04:08:17.132Z,10.02
2022-12-04T04:10:45.949Z,10.95
2022-12-04T04:13:36.559Z,10.85
2022-12-04T04:16:24.980Z,10.25
2022-12-04T04:19:11.923Z,9.32
2022-12-04T04:22:00.019Z,9.60
2022-12-04T04:24:35.336Z,8.02
2022-12-04T04:27:04.226Z,10.05
2022-12-04T04:29:32.588Z,10.30
2022-12-04T04:32:07.364Z,10.35
2022-12-04T04:34:40.963Z,9.18
2022-12-04T04:37:17.756Z,10.32
2022-12-04T04:39:54.123Z,10.48
2022-12-04T04:42:26.543Z,10.95
2022-12-04T04:45:01.696Z,10.80
2022-12-04T04:47:37.375Z,9.88
2022-12-04T04:50:10.340Z,9.23
2022-12-04T04:52:40.515Z,11.48
2022-12-04T04:55:10.006Z,11.55
2022-12-04T04:57:38.666Z,9.85
2022-12-04T05:00:09.719Z,9.35
2022-12-04T05:02:39.403Z,8.77
2022-12-04T05:05:08.275Z,11.65
2022-12-04T05:07:36.457Z,9.45
2022-12-04T05:10:09.300Z,11.65
2022-12-04T05:12:37.603Z,9.98
2022-12-04T05:15:06.657Z,10.25
2022-12-04T05:17:36.506Z,10.55
2022-12-04T05:20:05.926Z,11.23
2022-12-04T05:22:35.795Z,10.50
2022-12-04T05:25:04.900Z,11.65
2022-12-04T05:27:33.489Z,12.15
2022-12-04T05:30:01.659Z,9.70
2022-12-04T05:32:32.293Z,10.77
2022-12-04T05:35:00.439Z,10.75
2022-12-04T05:37:29.903Z,9.77
2022-12-04T05:40:00.237Z,12.52
2022-12-04T05:42:28.240Z,9.77
2022-12-04T05:44:56.547Z,10.57
2022-12-04T05:47:24.707Z,8.73
2022-12-04T05:49:52.904Z,9.48
2022-12-04T05:52:21.133Z,9.80
2022-12-04T05:54:50.597Z,9.90
2022-12-04T05:57:18.600Z,9.10
2022-12-04T05:59:46.599Z,10.35
2022-12-04T06:02:14.677Z,9.43
2022-12-04T06:04:42.711Z,10.80
2022-12-04T06:07:11.085Z,8.32
2022-12-04T06:09:39.393Z,9.30
2022-12-04T06:12:08.854Z,9.48
2022-12-04T06:14:39.740Z,9.10
2022-12-04T06:17:10.559Z,10.57
2022-12-04T06:19:38.554Z,9.10
2022-12-04T06:22:06.598Z,9.15
2022-12-04T06:24:34.718Z,9.20
2022-12-04T06:29:52.121Z,9.88
2022-12-04T06:32:21.965Z,10.50
2022-12-04T06:34:52.642Z,22.58
2022-12-04T06:37:23.523Z,16.92
2022-12-04T06:39:51.613Z,10.63
2022-12-04T06:42:19.662Z,8.07
2022-12-04T06:44:47.710Z,7.63
2022-12-04T06:47:17.197Z,11.32
2022-12-04T06:49:49.689Z,13.10
2022-12-04T06:52:17.910Z,12.70
2022-12-04T06:54:45.875Z,14.38
2022-12-04T06:57:13.852Z,10.25
2022-12-04T06:59:44.141Z,13.35
2022-12-04T07:02:12.380Z,12.38
2022-12-04T07:04:41.849Z,10.23
2022-12-04T07:07:10.629Z,10.48
2022-12-04T07:09:38.862Z,11.75
2022-12-04T07:12:07.432Z,10.73
2022-12-04T07:14:35.501Z,8.52
2022-12-04T07:17:03.633Z,11.32
2022-12-04T07:19:31.719Z,9.57
2022-12-04T07:22:01.167Z,10.07
2022-12-04T07:24:31.556Z,9.57
2022-12-04T07:26:59.614Z,10.50
2022-12-04T07:29:27.738Z,13.88
2022-12-04T07:31:55.898Z,13.10
2022-12-04T07:34:23.950Z,10.05
2022-12-04T07:36:52.157Z,9.70
2022-12-04T07:39:21.643Z,10.43
2022-12-04T07:41:52.012Z,9.85
2022-12-04T07:44:20.089Z,13.35
2022-12-04T07:46:48.175Z,9.85
2022-12-04T07:49:17.290Z,33.35
2022-12-04T07:51:45.384Z,27.25
2022-12-04T07:54:13.555Z,13.10
2022-12-04T07:56:42.959Z,13.52
2022-12-04T07:59:13.168Z,8.27
2022-12-04T08:01:41.261Z,13.13
2022-12-04T08:04:11.539Z,11.20
2022-12-04T08:06:39.926Z,8.15
2022-12-04T08:09:10.335Z,13.68
2022-12-04T08:11:38.620Z,9.98
2022-12-04T08:14:09.640Z,12.48
2022-12-04T08:16:38.181Z,9.85
2022-12-04T08:19:06.569Z,9.30
2022-12-04T08:21:35.117Z,7.50
2022-12-04T08:24:03.255Z,9.18
2022-12-04T08:26:33.605Z,10.18
2022-12-04T08:29:02.583Z,11.60
2022-12-04T08:31:33.919Z,8.40
2022-12-04T08:34:04.378Z,11.15
2022-12-04T08:36:36.318Z,10.88
2022-12-04T08:39:05.135Z,8.82
2022-12-04T08:41:33.547Z,11.40
2022-12-04T08:44:03.940Z,10.02
2022-12-04T08:46:33.490Z,11.90
2022-12-04T08:49:01.703Z,8.18
2022-12-04T08:51:31.281Z,8.57
2022-12-04T08:54:05.927Z,8.95
2022-12-04T08:56:35.064Z,8.90
2022-12-04T08:59:03.101Z,7.72
2022-12-04T09:01:33.425Z,9.02
2022-12-04T09:04:01.605Z,9.30
2022-12-04T09:06:29.784Z,7.55
2022-12-04T09:08:58.589Z,9.48
2022-12-04T09:11:28.421Z,7.93
2022-12-04T09:13:56.851Z,10.05
2022-12-04T09:16:27.139Z,8.25
2022-12-04T09:18:57.518Z,9.15
2022-12-04T09:21:26.293Z,9.52
2022-12-04T09:23:54.408Z,10.38
2022-12-04T09:26:25.437Z,9.13
2022-12-04T09:29:03.125Z,8.13
2022-12-04T09:31:33.239Z,9.38
2022-12-04T09:34:03.672Z,14.77
2022-12-04T09:36:32.011Z,9.52
2022-12-04T09:39:00.225Z,12.13
2022-12-04T09:41:47.166Z,11.10
2022-12-04T09:44:19.888Z,8.88
2022-12-04T09:46:52.831Z,9.95
2022-12-04T09:49:26.468Z,10.25
2022-12-04T09:51:57.541Z,11.10
2022-12-04T09:54:30.884Z,11.57
2022-12-04T09:57:02.365Z,14.65
2022-12-04T09:59:33.199Z,15.98
2022-12-04T10:02:11.284Z,18.00
2022-12-04T10:04:40.945Z,10.27
2022-12-04T10:07:17.009Z,8.80
2022-12-04T10:09:51.388Z,8.52
2022-12-04T10:12:26.047Z,8.95
2022-12-04T10:15:12.718Z,7.82
2022-12-04T10:17:57.802Z,7.40
2022-12-04T10:20:44.156Z,7.80
2022-12-04T10:23:23.625Z,7.63
2022-12-04T10:25:54.846Z,8.40
2022-12-04T10:28:32.284Z,8.13
2022-12-04T10:31:03.125Z,7.07
2022-12-04T10:33:38.057Z,7.28
2022-12-04T10:36:14.308Z,9.48
2022-12-04T10:38:46.817Z,9.25
2022-12-04T10:41:22.512Z,9.45
2022-12-04T10:43:51.815Z,8.65
2022-12-04T10:46:23.817Z,7.75
2022-12-04T10:48:54.715Z,9.27
2022-12-04T10:51:24.158Z,6.53
2022-12-04T10:53:53.042Z,7.18
2022-12-04T10:56:22.986Z,7.00
2022-12-04T10:58:58.892Z,7.30
2022-12-04T11:01:28.572Z,6.50
2022-12-04T11:04:01.747Z,8.38
2022-12-04T11:06:31.781Z,6.85
2022-12-04T11:09:00.814Z,7.72
2022-12-04T11:11:31.223Z,7.65
2022-12-04T11:14:04.568Z,8.15
2022-12-04T11:16:36.485Z,5.90
2022-12-04T11:19:05.042Z,6.97
2022-12-04T11:21:34.475Z,6.35
2022-12-04T11:24:02.878Z,5.75
2022-12-04T11:26:34.813Z,8.43
2022-12-04T11:29:05.214Z,6.88
2022-12-04T11:31:34.720Z,6.07
2022-12-04T11:34:05.890Z,7.40
2022-12-04T11:36:40.403Z,7.18
2022-12-04T11:39:17.676Z,8.60
2022-12-04T11:41:45.927Z,6.50
2022-12-04T11:44:27.898Z,8.45
2022-12-04T11:46:58.118Z,7.43
2022-12-04T11:49:28.672Z,7.45
2022-12-04T11:52:13.015Z,7.47
2022-12-04T11:54:54.002Z,7.65
2022-12-04T11:57:31.391Z,8.25
2022-12-04T12:00:06.769Z,8.00
2022-12-04T12:02:52.438Z,13.70
2022-12-04T12:05:36.438Z,10.90
2022-12-04T12:08:15.857Z,20.75
2022-12-04T12:10:52.246Z,10.18
2022-12-04T12:13:35.051Z,9.88
2022-12-04T12:16:13.132Z,12.18
2022-12-04T12:18:57.159Z,11.18
2022-12-04T12:21:27.738Z,10.15
2022-12-04T12:24:10.971Z,13.27
2022-12-04T12:26:48.571Z,10.75
2022-12-04T12:32:12.242Z,8.40
2022-12-04T12:34:43.003Z,8.07
2022-12-04T12:37:19.655Z,7.18
2022-12-04T12:39:56.120Z,7.40
2022-12-04T12:42:29.611Z,8.45
2022-12-04T12:45:03.571Z,9.73
2022-12-04T12:47:39.115Z,7.53
2022-12-04T12:50:14.901Z,6.45
2022-12-04T12:52:48.732Z,8.68
2022-12-04T12:55:24.678Z,8.20
2022-12-04T12:58:01.663Z,7.43
2022-12-04T13:00:33.521Z,12.38
2022-12-04T13:03:05.917Z,12.48
2022-12-04T13:05:38.704Z,12.23
2022-12-04T13:08:21.637Z,12.57
2022-12-04T13:10:59.710Z,9.75
2022-12-04T13:13:30.598Z,7.65
2022-12-04T13:16:05.389Z,7.95
2022-12-04T13:18:36.819Z,7.60
2022-12-04T13:21:07.736Z,7.65
2022-12-04T13:23:47.959Z,9.32
2022-12-04T13:26:29.715Z,9.77
2022-12-04T13:29:09.860Z,8.77
2022-12-04T13:31:53.193Z,9.52
2022-12-04T13:34:48.486Z,8.63
2022-12-04T13:37:38.545Z,9.60
2022-12-04T13:40:30.011Z,10.90
2022-12-04T13:43:29.976Z,7.95
2022-12-04T13:46:00.566Z,8.52
2022-12-04T13:48:31.845Z,8.85
2022-12-04T13:51:08.807Z,8.82
2022-12-04T13:53:40.299Z,7.45
2022-12-04T13:56:24.270Z,8.25
2022-12-04T13:59:04.098Z,9.15
2022-12-04T14:01:39.200Z,9.52
2022-12-04T14:04:08.138Z,8.80
2022-12-04T14:06:39.637Z,8.50
2022-12-04T14:09:19.481Z,8.52
2022-12-04T14:11:51.993Z,8.05
2022-12-04T14:14:27.713Z,7.78
2022-12-04T14:16:57.228Z,8.05
2022-12-04T14:19:32.412Z,7.05
2022-12-04T14:22:01.063Z,8.32
2022-12-04T14:24:36.180Z,8.95
2022-12-04T14:27:33.058Z,8.05
2022-12-04T14:30:04.147Z,9.43
2022-12-04T14:32:35.294Z,7.82
2022-12-04T14:35:13.393Z,8.73
2022-12-04T14:37:49.307Z,7.93
2022-12-04T14:40:23.497Z,8.88
2022-12-04T14:42:53.037Z,9.73
2022-12-04T14:45:30.355Z,9.75
2022-12-04T14:48:24.749Z,10.93
2022-12-04T14:51:02.489Z,7.80
2022-12-04T14:53:40.210Z,10.10
2022-12-04T14:56:24.139Z,8.70
2022-12-04T14:58:52.688Z,9.45
2022-12-04T15:01:29.086Z,9.05
2022-12-04T15:04:01.664Z,10.20
2022-12-04T15:06:34.244Z,9.05
2022-12-04T15:09:19.023Z,9.95
2022-12-04T15:12:05.440Z,10.68
2022-12-04T15:14:42.200Z,9.18
2022-12-04T15:17:13.540Z,10.65
2022-12-04T15:19:41.930Z,8.55
2022-12-04T15:22:18.276Z,10.05
2022-12-04T15:24:46.493Z,10.57
2022-12-04T15:27:17.176Z,10.13
2022-12-04T15:29:48.371Z,12.07
2022-12-04T15:32:21.084Z,10.27
2022-12-04T15:34:52.853Z,10.98
2022-12-04T15:37:23.699Z,10.10
2022-12-04T15:39:52.920Z,10.63
2022-12-04T15:42:27.306Z,10.70
2022-12-04T15:45:01.170Z,11.65
2022-12-04T15:47:32.919Z,11.57
2022-12-04T15:50:10.102Z,10.90
2022-12-04T15:52:39.171Z,12.63
2022-12-04T15:55:09.782Z,9.70
2022-12-04T15:57:40.362Z,12.63
2022-12-04T16:00:23.803Z,10.38
2022-12-04T16:02:53.514Z,11.85
2022-12-04T16:05:32.728Z,11.70
2022-12-04T16:08:02.941Z,11.52
2022-12-04T16:10:33.003Z,10.85
2022-12-04T16:13:02.898Z,11.55
2022-12-04T16:15:38.126Z,13.50
2022-12-04T16:18:11.872Z,11.57
2022-12-04T16:20:41.263Z,10.90
2022-12-04T16:23:11.026Z,12.10
2022-12-04T16:25:39.089Z,12.32
2022-12-04T16:28:07.169Z,11.20
2022-12-04T16:30:36.880Z,12.48
2022-12-04T16:33:05.201Z,12.48
2022-12-04T16:35:34.589Z,10.63
2022-12-04T16:38:04.731Z,11.20
2022-12-04T16:40:32.877Z,10.45
2022-12-04T16:43:01.000Z,11.93
2022-12-04T16:45:33.180Z,13.00
2022-12-04T16:48:01.404Z,12.80
2022-12-04T16:50:29.605Z,11.98
2022-12-04T16:52:59.631Z,12.30
2022-12-04T16:55:32.346Z,12.35
2022-12-04T16:58:00.580Z,12.85
2022-12-04T17:00:28.933Z,12.25
2022-12-04T17:02:57.390Z,11.30
2022-12-04T17:05:26.804Z,10.80
2022-12-04T17:07:55.357Z,13.65
2022-12-04T17:10:27.052Z,11.75
2022-12-04T17:12:55.675Z,12.63
2022-12-04T17:15:23.872Z,13.43
2022-12-04T17:17:52.383Z,10.30
2022-12-04T17:20:21.602Z,10.85
2022-12-04T17:22:50.338Z,11.95
2022-12-04T17:25:18.736Z,11.05
2022-12-04T17:27:48.218Z,11.65
2022-12-04T17:30:16.911Z,12.52
2022-12-04T17:32:46.155Z,14.38
2022-12-04T17:35:14.422Z,14.50
2022-12-04T17:37:42.481Z,17.00
2022-12-04T17:40:13.004Z,12.73
2022-12-04T17:42:41.534Z,11.80
2022-12-04T17:45:14.315Z,13.73
2022-12-04T17:47:42.593Z,12.68
2022-12-04T17:50:11.349Z,11.40
2022-12-04T17:52:39.471Z,15.90
2022-12-04T17:55:10.214Z,16.75
2022-12-04T17:57:38.264Z,15.65
2022-12-04T18:00:07.885Z,15.18
2022-12-04T18:02:42.585Z,12.50
2022-12-04T18:05:10.918Z,13.38
2022-12-04T18:07:39.352Z,12.32
2022-12-04T18:10:08.640Z,15.98
2022-12-04T18:12:36.811Z,13.55
2022-12-04T18:15:05.664Z,15.20
2022-12-04T18:17:33.884Z,18.02
2022-12-04T18:20:05.325Z,17.73
2022-12-04T18:22:34.098Z,16.58
2022-12-04T18:25:02.569Z,17.42
2022-12-04T18:27:31.255Z,19.08
2022-12-04T18:30:01.607Z,18.75
2022-12-04T18:32:29.838Z,17.65
2022-12-04T18:34:58.555Z,18.73
2022-12-04T18:37:28.454Z,17.73
2022-12-04T18:40:03.366Z,19.25
2022-12-04T18:42:34.851Z,18.42
2022-12-04T18:45:03.500Z,19.13
2022-12-04T18:47:34.336Z,22.75
2022-12-04T18:50:02.467Z,20.98
2022-12-04T18:52:35.315Z,20.35
2022-12-04T18:55:03.538Z,19.50
2022-12-04T18:57:31.732Z,20.65
2022-12-04T19:00:00.100Z,21.55
2022-12-04T19:02:28.368Z,22.23
2022-12-04T19:04:59.152Z,23.98
2022-12-04T19:07:27.614Z,21.83
2022-12-04T19:10:12.764Z,20.20
2022-12-04T19:12:40.909Z,21.83
2022-12-04T19:15:09.744Z,25.98
2022-12-04T19:17:38.034Z,21.52
2022-12-04T19:20:07.360Z,23.10
2022-12-04T19:22:35.637Z,25.83
2022-12-04T19:25:06.566Z,21.90
2022-12-04T19:27:35.391Z,20.73
2022-12-04T19:30:03.899Z,23.98
2022-12-04T19:32:33.392Z,20.70
2022-12-04T19:35:01.529Z,21.58
2022-12-04T19:37:31.778Z,25.30
2022-12-04T19:40:00.008Z,23.40
2022-12-04T19:42:31.581Z,23.20
2022-12-04T19:44:59.898Z,22.77
2022-12-04T19:47:27.990Z,20.75
2022-12-04T19:49:56.613Z,22.50
2022-12-04T19:52:25.101Z,21.95
2022-12-04T19:54:53.343Z,22.02
2022-12-04T19:57:21.450Z,19.67
2022-12-04T19:59:51.063Z,20.95
2022-12-04T20:02:19.778Z,22.00
2022-12-04T20:04:48.036Z,21.50
2022-12-04T20:07:16.357Z,21.67
2022-12-04T20:09:52.181Z,22.95
2022-12-04T20:12:20.847Z,21.85
2022-12-04T20:14:50.441Z,21.77
2022-12-04T20:17:18.740Z,21.58
2022-12-04T20:19:47.002Z,21.65
2022-12-04T20:22:15.198Z,26.20
2022-12-04T20:24:43.845Z,24.67
2022-12-04T20:27:12.020Z,22.80
2022-12-04T20:29:40.101Z,24.95
2022-12-04T20:32:09.536Z,24.38
2022-12-04T20:34:43.254Z,24.73
2022-12-04T20:37:12.159Z,23.25
2022-12-04T20:39:40.499Z,23.45
2022-12-04T20:42:08.582Z,22.95
2022-12-04T20:44:36.872Z,28.15
2022-12-04T20:47:05.034Z,24.45
2022-12-04T20:49:34.569Z,22.10
2022-12-04T20:52:03.036Z,24.30
2022-12-04T20:54:32.066Z,23.45
2022-12-04T20:57:02.468Z,26.35
2022-12-04T20:59:30.586Z,23.90
2022-12-04T21:01:59.492Z,22.25
2022-12-04T21:04:27.679Z,23.02
2022-12-04T21:06:57.698Z,22.38
2022-12-04T21:09:26.677Z,23.85
2022-12-04T21:11:56.153Z,23.90
2022-12-04T21:14:47.194Z,21.40
2022-12-04T21:17:18.806Z,21.65
2022-12-04T21:19:48.378Z,22.48
2022-12-04T21:22:19.192Z,24.83
2022-12-04T21:24:47.354Z,25.02
2022-12-04T21:27:21.291Z,22.83
2022-12-04T21:29:50.559Z,25.33
2022-12-04T21:32:19.866Z,22.30
2022-12-04T21:34:48.021Z,22.88
2022-12-04T21:37:17.644Z,22.15
2022-12-04T21:39:45.815Z,24.05
2022-12-04T21:42:31.884Z,21.30
2022-12-04T21:45:00.628Z,24.77
2022-12-04T21:47:29.075Z,25.50
2022-12-04T21:49:57.706Z,27.40
2022-12-04T21:52:30.498Z,21.65
2022-12-04T21:54:58.887Z,24.42
2022-12-04T21:57:29.439Z,22.60
2022-12-04T21:59:57.822Z,25.58
2022-12-04T22:02:28.658Z,23.50
2022-12-04T22:04:56.708Z,22.80
2022-12-04T22:07:24.909Z,24.40
2022-12-04T22:09:54.605Z,24.38
2022-12-04T22:15:11.652Z,29.25
2022-12-04T22:17:39.737Z,24.45
2022-12-04T22:20:09.033Z,25.17
2022-12-04T22:22:37.056Z,23.00
2022-12-04T22:25:07.321Z,23.95
2022-12-04T22:27:35.487Z,22.10
2022-12-04T22:30:04.101Z,25.55
2022-12-04T22:32:32.533Z,25.15
2022-12-04T22:35:00.594Z,26.17
2022-12-04T22:37:28.624Z,25.80
2022-12-04T22:39:56.950Z,31.77
2022-12-04T22:42:26.504Z,22.85
2022-12-04T22:44:56.900Z,27.73
2022-12-04T22:47:25.224Z,23.40
2022-12-04T22:49:53.274Z,24.00
2022-12-04T22:52:21.306Z,27.00
2022-12-04T22:54:51.273Z,22.38
2022-12-04T22:57:19.868Z,23.02
2022-12-04T22:59:49.229Z,21.50
2022-12-04T23:02:17.394Z,22.88
2022-12-04T23:04:45.435Z,24.90
2022-12-04T23:07:13.603Z,22.23
2022-12-04T23:09:41.845Z,21.75
2022-12-04T23:12:10.154Z,22.80
2022-12-04T23:14:38.204Z,21.80
2022-12-04T23:17:07.898Z,24.10
2022-12-04T23:19:36.024Z,22.17
2022-12-04T23:22:06.303Z,23.90
2022-12-04T23:24:37.947Z,23.63
2022-12-04T23:27:06.003Z,21.52
2022-12-04T23:29:52.807Z,21.52
2022-12-04T23:32:23.090Z,21.98
2022-12-04T23:34:52.945Z,22.65
2022-12-04T23:37:21.046Z,22.42
2022-12-04T23:39:49.085Z,23.63
2022-12-04T23:42:17.123Z,23.17
2022-12-04T23:44:45.346Z,24.75
2022-12-04T23:47:13.570Z,24.05
2022-12-04T23:50:32.892Z,23.63
2022-12-04T23:53:02.555Z,24.63
2022-12-04T23:55:34.234Z,22.25
2022-12-04T23:58:03.148Z,22.75
